createdAt,value
2023-05-12T00:01:07.697Z,100.00
2023-05-12T00:04:24.274Z,100.00
2023-05-12T00:07:40.613Z,100.00
2023-05-12T00:10:56.989Z,100.00
2023-05-12T00:14:14.082Z,100.00
2023-05-12T00:17:30.651Z,100.00
2023-05-12T00:20:47.551Z,100.00
2023-05-12T00:24:03.706Z,100.00
2023-05-12T00:27:20.080Z,100.00
2023-05-12T00:30:36.409Z,100.00
2023-05-12T00:33:52.685Z,100.00
2023-05-12T00:37:09.268Z,100.00
2023-05-12T00:40:25.808Z,100.00
2023-05-12T00:43:42.464Z,100.00
2023-05-12T00:46:59.598Z,100.00
2023-05-12T00:50:17.850Z,100.00
2023-05-12T00:53:47.830Z,100.00
2023-05-12T00:56:53.025Z,100.00
2023-05-12T01:00:11.773Z,100.00
2023-05-12T01:03:27.578Z,100.00
2023-05-12T01:06:49.724Z,100.00
2023-05-12T01:10:06.799Z,100.00
2023-05-12T01:13:24.562Z,100.00
2023-05-12T01:16:45.430Z,100.00
2023-05-12T01:20:05.527Z,100.00
2023-05-12T01:23:25.688Z,100.00
2023-05-12T01:26:42.467Z,100.00
2023-05-12T01:30:00.836Z,100.00
2023-05-12T01:33:19.207Z,100.00
2023-05-12T01:36:35.563Z,100.00
2023-05-12T01:39:52.189Z,100.00
2023-05-12T01:43:09.172Z,100.00
2023-05-12T01:46:25.513Z,100.00
2023-05-12T01:49:43.583Z,100.00
2023-05-12T01:53:01.506Z,100.00
2023-05-12T01:56:19.460Z,100.00
2023-05-12T01:59:36.993Z,100.00
2023-05-12T02:02:54.577Z,100.00
2023-05-12T02:06:11.610Z,100.00
2023-05-12T02:09:27.978Z,100.00
2023-05-12T02:12:46.360Z,100.00
2023-05-12T02:16:02.992Z,100.00
2023-05-12T02:19:20.027Z,100.00
2023-05-12T02:22:37.654Z,100.00
2023-05-12T02:25:53.898Z,100.00
2023-05-12T02:29:12.760Z,100.00
2023-05-12T02:32:29.730Z,100.00
2023-05-12T02:35:46.070Z,100.00
2023-05-12T02:39:02.413Z,100.00
2023-05-12T02:42:19.010Z,100.00
2023-05-12T02:45:38.543Z,100.00
2023-05-12T02:48:55.081Z,100.00
2023-05-12T02:52:12.195Z,100.00
2023-05-12T02:55:30.901Z,100.00
2023-05-12T02:58:47.491Z,100.00
2023-05-12T03:02:03.969Z,100.00
2023-05-12T03:05:20.668Z,100.00
2023-05-12T03:08:38.399Z,100.00
2023-05-12T03:11:54.841Z,100.00
2023-05-12T03:15:12.279Z,100.00
2023-05-12T03:18:28.806Z,100.00
2023-05-12T03:21:47.038Z,100.00
2023-05-12T03:25:04.946Z,100.00
2023-05-12T03:28:21.245Z,100.00
2023-05-12T03:31:37.572Z,100.00
2023-05-12T03:34:54.200Z,100.00
2023-05-12T03:38:10.579Z,100.00
2023-05-12T03:41:27.673Z,100.00
2023-05-12T03:44:47.062Z,100.00
2023-05-12T03:48:03.053Z,100.00
2023-05-12T03:51:19.232Z,100.00
2023-05-12T03:54:37.981Z,100.00
2023-05-12T03:57:55.955Z,100.00
2023-05-12T04:01:13.251Z,100.00
2023-05-12T04:04:29.404Z,100.00
2023-05-12T04:07:46.802Z,100.00
2023-05-12T04:11:05.796Z,100.00
2023-05-12T04:14:31.807Z,100.00
2023-05-12T04:17:40.190Z,100.00
2023-05-12T04:20:56.725Z,100.00
2023-05-12T04:24:13.746Z,100.00
2023-05-12T04:27:30.066Z,100.00
2023-05-12T04:30:49.034Z,100.00
2023-05-12T04:34:05.664Z,100.00
2023-05-12T04:37:23.250Z,100.00
2023-05-12T04:40:39.637Z,100.00
2023-05-12T04:47:15.461Z,100.00
2023-05-12T04:50:31.782Z,100.00
2023-05-12T04:53:48.177Z,100.00
2023-05-12T04:57:04.669Z,100.00
2023-05-12T05:00:23.032Z,100.00
2023-05-12T05:03:40.160Z,100.00
2023-05-12T05:06:56.786Z,100.00
2023-05-12T05:10:16.196Z,100.00
2023-05-12T05:13:33.542Z,100.00
2023-05-12T05:16:50.006Z,100.00
2023-05-12T05:20:11.750Z,100.00
2023-05-12T05:23:24.100Z,100.00
2023-05-12T05:26:41.524Z,100.00
2023-05-12T05:29:58.644Z,100.00
2023-05-12T05:33:15.127Z,100.00
2023-05-12T05:36:32.488Z,100.00
2023-05-12T05:39:48.936Z,100.00
2023-05-12T05:43:07.535Z,100.00
2023-05-12T05:46:23.857Z,100.00
2023-05-12T05:49:40.324Z,100.00
2023-05-12T05:52:57.109Z,100.00
2023-05-12T05:56:14.575Z,100.00
2023-05-12T05:59:35.950Z,100.00
2023-05-12T06:02:53.111Z,100.00
2023-05-12T06:06:31.002Z,100.00
2023-05-12T06:09:48.695Z,100.00
2023-05-12T06:13:05.184Z,100.00
2023-05-12T06:16:21.682Z,100.00
2023-05-12T06:19:38.352Z,100.00
2023-05-12T06:22:54.881Z,100.00
2023-05-12T06:26:14.459Z,100.00
2023-05-12T06:29:30.584Z,100.00
2023-05-12T06:32:47.237Z,100.00
2023-05-12T06:36:03.666Z,100.00
2023-05-12T06:39:21.910Z,100.00
2023-05-12T06:42:39.456Z,100.00
2023-05-12T06:46:04.111Z,100.00
2023-05-12T06:49:22.701Z,100.00
2023-05-12T06:52:39.086Z,100.00
2023-05-12T06:55:56.140Z,100.00
2023-05-12T06:59:14.280Z,100.00
2023-05-12T07:02:31.238Z,100.00
2023-05-12T07:05:49.239Z,100.00
2023-05-12T07:09:05.864Z,100.00
2023-05-12T07:12:22.418Z,100.00
2023-05-12T07:15:39.005Z,100.00
2023-05-12T07:18:56.724Z,100.00
2023-05-12T07:22:15.693Z,100.00
2023-05-12T07:25:32.333Z,100.00
2023-05-12T07:28:49.353Z,100.00
2023-05-12T07:32:09.483Z,100.00
2023-05-12T07:35:23.912Z,100.00
2023-05-12T07:38:41.057Z,100.00
2023-05-12T07:41:57.538Z,100.00
2023-05-12T07:45:19.108Z,100.00
2023-05-12T07:48:37.533Z,100.00
2023-05-12T07:51:54.869Z,100.00
2023-05-12T07:55:12.547Z,100.00
2023-05-12T07:58:29.179Z,100.00
2023-05-12T08:01:45.634Z,100.00
2023-05-12T08:05:02.089Z,100.00
2023-05-12T08:08:18.913Z,100.00
2023-05-12T08:11:35.464Z,100.00
2023-05-12T08:14:51.735Z,100.00
2023-05-12T08:18:08.928Z,100.00
2023-05-12T08:21:25.672Z,100.00
2023-05-12T08:24:41.952Z,99.27
2023-05-12T08:27:58.508Z,100.00
2023-05-12T08:31:15.314Z,100.00
2023-05-12T08:34:31.948Z,99.42
2023-05-12T08:37:48.521Z,99.21
2023-05-12T08:41:12.606Z,96.18
2023-05-12T08:44:29.376Z,98.54
2023-05-12T08:47:47.732Z,96.31
2023-05-12T08:51:04.657Z,94.91
2023-05-12T08:54:23.350Z,94.04
2023-05-12T08:57:39.525Z,94.74
2023-05-12T09:00:57.642Z,95.51
2023-05-12T09:04:16.284Z,94.18
2023-05-12T09:07:34.762Z,92.53
2023-05-12T09:10:51.325Z,92.37
2023-05-12T09:14:13.249Z,91.80
2023-05-12T09:17:29.629Z,91.84
2023-05-12T09:20:48.561Z,90.25
2023-05-12T09:24:08.296Z,92.18
2023-05-12T09:27:34.118Z,90.74
2023-05-12T09:30:50.568Z,91.83
2023-05-12T09:34:12.498Z,92.12
2023-05-12T09:37:37.781Z,90.27
2023-05-12T09:40:57.081Z,92.06
2023-05-12T09:44:14.846Z,91.55
2023-05-12T09:47:41.715Z,92.21
2023-05-12T09:51:00.519Z,95.02
2023-05-12T09:54:14.763Z,94.27
2023-05-12T09:57:33.000Z,92.72
2023-05-12T10:01:12.878Z,92.74
2023-05-12T10:04:09.848Z,91.79
2023-05-12T10:07:29.146Z,92.11
2023-05-12T10:10:49.491Z,92.05
2023-05-12T10:14:09.531Z,91.64
2023-05-12T10:17:27.410Z,91.77
2023-05-12T10:20:45.366Z,91.98
2023-05-12T10:24:02.461Z,92.77
2023-05-12T10:27:19.962Z,92.12
2023-05-12T10:30:36.539Z,92.46
2023-05-12T10:34:03.248Z,93.25
2023-05-12T10:37:20.854Z,93.98
2023-05-12T10:40:37.394Z,91.89
2023-05-12T10:43:56.138Z,91.34
2023-05-12T10:47:20.548Z,92.43
2023-05-12T10:50:40.291Z,92.75
2023-05-12T10:53:59.229Z,92.33
2023-05-12T10:57:24.193Z,92.32
2023-05-12T11:00:50.534Z,92.57
2023-05-12T11:04:22.079Z,92.34
2023-05-12T11:07:40.680Z,91.84
2023-05-12T11:10:59.074Z,92.74
2023-05-12T11:14:16.742Z,93.48
2023-05-12T11:17:33.091Z,94.36
2023-05-12T11:20:49.616Z,94.00
2023-05-12T11:24:13.556Z,94.45
2023-05-12T11:27:29.145Z,94.22
2023-05-12T11:30:47.253Z,93.89
2023-05-12T11:34:14.483Z,94.41
2023-05-12T11:37:31.034Z,97.12
2023-05-12T11:40:49.342Z,97.82
2023-05-12T11:44:05.608Z,98.36
2023-05-12T11:47:25.101Z,98.71
2023-05-12T11:50:43.799Z,94.37
2023-05-12T11:54:02.691Z,94.53
2023-05-12T11:57:21.377Z,94.98
2023-05-12T12:00:43.301Z,94.98
2023-05-12T12:04:01.998Z,94.93
2023-05-12T12:07:19.071Z,93.36
2023-05-12T12:10:39.084Z,93.67
2023-05-12T12:14:02.468Z,96.25
2023-05-12T12:17:19.178Z,98.44
2023-05-12T12:20:35.830Z,98.30
2023-05-12T12:23:52.454Z,98.28
2023-05-12T12:27:09.005Z,98.71
2023-05-12T12:30:27.438Z,99.48
2023-05-12T12:33:43.918Z,99.82
2023-05-12T12:37:01.197Z,99.18
2023-05-12T12:40:19.223Z,99.19
2023-05-12T12:43:35.649Z,98.13
2023-05-12T12:46:51.959Z,97.92
2023-05-12T12:50:08.380Z,98.66
2023-05-12T12:53:25.790Z,99.07
2023-05-12T12:56:42.641Z,99.46
2023-05-12T12:59:59.252Z,100.00
2023-05-12T13:03:17.100Z,100.00
2023-05-12T13:06:34.699Z,98.41
2023-05-12T13:10:18.756Z,98.67
2023-05-12T13:13:35.665Z,96.97
2023-05-12T13:16:55.382Z,98.45
2023-05-12T13:20:13.345Z,96.61
2023-05-12T13:23:29.992Z,97.07
2023-05-12T13:26:46.439Z,96.27
2023-05-12T13:30:04.729Z,94.95
2023-05-12T13:33:21.338Z,95.11
2023-05-12T13:36:41.068Z,96.83
2023-05-12T13:39:57.363Z,97.58
2023-05-12T13:43:30.874Z,97.14
2023-05-12T13:46:49.590Z,97.32
2023-05-12T13:50:06.273Z,96.71
2023-05-12T13:53:23.003Z,96.16
2023-05-12T13:56:40.775Z,96.24
2023-05-12T14:00:00.948Z,96.58
2023-05-12T14:03:17.546Z,95.89
2023-05-12T14:06:35.488Z,95.12
2023-05-12T14:09:51.910Z,95.54
2023-05-12T14:13:08.727Z,95.44
2023-05-12T14:16:32.318Z,95.15
2023-05-12T14:19:49.260Z,94.65
2023-05-12T14:23:05.537Z,94.30
2023-05-12T14:26:22.375Z,93.73
2023-05-12T14:29:39.685Z,94.32
2023-05-12T14:32:56.144Z,94.29
2023-05-12T14:36:14.606Z,94.18
2023-05-12T14:39:30.860Z,93.38
2023-05-12T14:42:51.517Z,94.39
2023-05-12T14:46:09.645Z,94.03
2023-05-12T14:49:28.430Z,93.53
2023-05-12T14:52:44.997Z,93.95
2023-05-12T14:56:04.265Z,94.08
2023-05-12T14:59:21.641Z,93.89
2023-05-12T15:02:47.472Z,94.45
2023-05-12T15:06:08.284Z,94.12
2023-05-12T15:09:24.982Z,94.23
2023-05-12T15:12:41.299Z,95.12
2023-05-12T15:15:57.539Z,95.99
2023-05-12T15:19:14.970Z,95.45
2023-05-12T15:22:32.423Z,95.94
2023-05-12T15:25:50.009Z,96.22
2023-05-12T15:29:06.574Z,96.79
2023-05-12T15:32:22.921Z,96.88
2023-05-12T15:35:39.600Z,97.20
2023-05-12T15:38:55.864Z,96.69
2023-05-12T15:42:14.697Z,97.35
2023-05-12T15:45:32.407Z,97.03
2023-05-12T15:48:49.838Z,97.03
2023-05-12T15:52:06.251Z,96.86
2023-05-12T15:55:23.322Z,96.52
2023-05-12T15:58:40.185Z,96.42
2023-05-12T16:01:57.255Z,96.42
2023-05-12T16:05:14.940Z,96.71
2023-05-12T16:08:31.272Z,96.58
2023-05-12T16:11:47.808Z,96.40
2023-05-12T16:15:05.810Z,96.91
2023-05-12T16:18:22.191Z,97.25
2023-05-12T16:21:38.750Z,97.07
2023-05-12T16:24:57.365Z,97.68
2023-05-12T16:28:13.891Z,97.88
2023-05-12T16:31:31.760Z,97.91
2023-05-12T16:34:48.342Z,98.20
2023-05-12T16:38:04.998Z,98.65
2023-05-12T16:41:23.189Z,98.81
2023-05-12T16:44:40.631Z,99.69
2023-05-12T16:47:58.583Z,99.65
2023-05-12T16:51:17.885Z,99.50
2023-05-12T16:54:34.336Z,98.72
2023-05-12T16:57:50.789Z,99.15
2023-05-12T17:01:08.214Z,99.70
2023-05-12T17:04:24.550Z,98.60
2023-05-12T17:07:41.128Z,98.40
2023-05-12T17:10:57.833Z,98.17
2023-05-12T17:14:14.404Z,98.62
2023-05-12T17:17:30.774Z,98.97
2023-05-12T17:20:47.332Z,99.92
2023-05-12T17:24:03.860Z,100.00
2023-05-12T17:27:20.474Z,100.00
2023-05-12T17:30:37.211Z,100.00
2023-05-12T17:33:53.559Z,100.00
2023-05-12T17:37:10.416Z,100.00
2023-05-12T17:40:30.278Z,100.00
2023-05-12T17:43:46.868Z,100.00
2023-05-12T17:47:05.625Z,100.00
2023-05-12T17:50:22.792Z,100.00
2023-05-12T17:53:40.005Z,100.00
2023-05-12T17:56:57.197Z,100.00
2023-05-12T18:00:16.639Z,100.00
2023-05-12T18:03:33.542Z,100.00
2023-05-12T18:06:51.406Z,100.00
2023-05-12T18:10:17.444Z,100.00
2023-05-12T18:13:34.261Z,100.00
2023-05-12T18:17:01.118Z,100.00
2023-05-12T18:20:19.966Z,100.00
2023-05-12T18:23:36.662Z,100.00
2023-05-12T18:26:53.626Z,100.00
2023-05-12T18:30:13.989Z,100.00
2023-05-12T18:33:30.736Z,100.00
2023-05-12T18:36:47.792Z,100.00
2023-05-12T18:40:05.787Z,100.00
2023-05-12T18:43:22.304Z,100.00
2023-05-12T18:46:41.249Z,100.00
2023-05-12T18:49:57.712Z,100.00
2023-05-12T18:53:15.578Z,100.00
2023-05-12T18:56:35.626Z,100.00
2023-05-12T18:59:52.006Z,100.00
2023-05-12T19:03:09.570Z,100.00
2023-05-12T19:06:29.347Z,100.00
2023-05-12T19:09:45.558Z,100.00
2023-05-12T19:13:02.470Z,100.00
2023-05-12T19:16:19.046Z,100.00
2023-05-12T19:19:35.801Z,100.00
2023-05-12T19:22:52.713Z,100.00
2023-05-12T19:26:10.898Z,100.00
2023-05-12T19:29:27.513Z,100.00
2023-05-12T19:32:45.964Z,100.00
2023-05-12T19:36:03.727Z,100.00
2023-05-12T19:39:20.410Z,100.00
2023-05-12T19:42:39.012Z,100.00
2023-05-12T19:45:55.405Z,100.00
2023-05-12T19:49:12.222Z,100.00
2023-05-12T19:52:31.576Z,100.00
2023-05-12T19:55:45.711Z,100.00
2023-05-12T19:59:02.182Z,100.00
2023-05-12T20:02:22.226Z,100.00
2023-05-12T20:05:39.227Z,100.00
2023-05-12T20:08:55.787Z,100.00
2023-05-12T20:12:13.165Z,100.00
2023-05-12T20:15:29.525Z,100.00
2023-05-12T20:18:46.140Z,100.00
2023-05-12T20:22:04.049Z,100.00
2023-05-12T20:25:29.416Z,100.00
2023-05-12T20:28:47.182Z,100.00
2023-05-12T20:32:03.825Z,100.00
2023-05-12T20:35:33.918Z,100.00
2023-05-12T20:38:53.132Z,100.00
2023-05-12T20:42:11.061Z,100.00
2023-05-12T20:45:32.204Z,100.00
2023-05-12T20:48:50.107Z,100.00
2023-05-12T20:52:06.467Z,100.00
2023-05-12T20:55:23.543Z,100.00
2023-05-12T20:58:40.585Z,100.00
2023-05-12T21:01:58.681Z,100.00
2023-05-12T21:05:16.179Z,100.00
2023-05-12T21:08:32.845Z,100.00
2023-05-12T21:11:49.189Z,100.00
2023-05-12T21:15:05.641Z,100.00
2023-05-12T21:18:22.102Z,100.00
2023-05-12T21:21:38.617Z,100.00
2023-05-12T21:24:55.226Z,100.00
2023-05-12T21:28:14.923Z,100.00
2023-05-12T21:31:31.526Z,100.00
2023-05-12T21:34:48.083Z,100.00
2023-05-12T21:38:04.942Z,100.00
2023-05-12T21:41:23.450Z,100.00
2023-05-12T21:44:39.813Z,100.00
2023-05-12T21:47:56.593Z,100.00
2023-05-12T21:51:13.722Z,100.00
2023-05-12T21:54:31.836Z,100.00
2023-05-12T21:57:50.965Z,100.00
2023-05-12T22:01:08.050Z,100.00
2023-05-12T22:04:24.349Z,100.00
2023-05-12T22:07:40.740Z,100.00
2023-05-12T22:10:57.195Z,100.00
2023-05-12T22:14:13.552Z,100.00
2023-05-12T22:17:29.874Z,100.00
2023-05-12T22:20:47.445Z,100.00
2023-05-12T22:24:03.597Z,100.00
2023-05-12T22:27:21.712Z,100.00
2023-05-12T22:30:38.210Z,100.00
2023-05-12T22:33:54.744Z,100.00
2023-05-12T22:37:11.250Z,100.00
2023-05-12T22:40:28.749Z,100.00
2023-05-12T22:43:45.160Z,100.00
2023-05-12T22:47:02.129Z,100.00
2023-05-12T22:50:20.233Z,100.00
2023-05-12T22:53:36.839Z,100.00
2023-05-12T22:56:53.243Z,100.00
2023-05-12T23:00:10.679Z,100.00
2023-05-12T23:03:27.094Z,100.00
2023-05-12T23:06:43.499Z,100.00
2023-05-12T23:10:00.888Z,100.00
2023-05-12T23:13:16.970Z,100.00
2023-05-12T23:16:33.259Z,100.00
2023-05-12T23:19:49.582Z,100.00
2023-05-12T23:23:06.018Z,100.00
2023-05-12T23:26:24.736Z,100.00
2023-05-12T23:29:41.225Z,100.00
2023-05-12T23:32:57.542Z,100.00
2023-05-12T23:36:15.418Z,100.00
2023-05-12T23:39:31.823Z,100.00
2023-05-12T23:42:48.053Z,100.00
2023-05-12T23:46:04.417Z,100.00
2023-05-12T23:49:20.932Z,100.00
2023-05-12T23:52:37.188Z,100.00
2023-05-12T23:55:53.590Z,100.00
2023-05-12T23:59:10.066Z,100.00
